Time;durP1;ratioP1;P1;durP2;ratioP2;P2;SDS_P1;SDS_P2;PMS_P1;PMS_P2;Temp;Humidity;BMP_temperature;BMP_pressure;BME280_temperature;BME280_humidity;BME280_pressure;Samples;Min_cycle;Max_cycle;Signal;HPM_P1;HPM_P2
2021/12/04 14:18:09;;;;;;;45.63;19.97;;;5.70;99.90;;;;;;5081842;27;20390;-73
2021/12/04 14:20:39;;;;;;;47.65;20.75;;;5.70;99.90;;;;;;5085970;28;20290;-73
2021/12/04 14:23:05;;;;;;;44.93;21.87;;;5.70;99.90;;;;;;5084945;28;20431;-73
2021/12/04 14:25:31;;;;;;;45.93;23.33;;;5.80;99.90;;;;;;5085273;28;20762;-72
2021/12/04 14:27:59;;;;;;;43.00;21.53;;;5.80;99.90;;;;;;5086350;28;20297;-71
2021/12/04 14:30:32;;;;;;;43.27;21.70;;;5.90;99.90;;;;;;5085511;28;20491;-72
2021/12/04 14:33:01;;;;;;;43.30;22.17;;;6.00;99.90;;;;;;5084818;28;20298;-72
2021/12/04 14:35:29;;;;;;;47.60;24.83;;;6.00;99.90;;;;;;5084196;28;20294;-72
2021/12/04 14:37:57;;;;;;;49.53;29.47;;;6.10;99.90;;;;;;5086161;28;20325;-71
2021/12/04 14:40:27;;;;;;;46.17;27.20;;;6.20;99.90;;;;;;5085004;28;20386;-71
2021/12/04 14:42:54;;;;;;;42.50;24.20;;;6.20;99.90;;;;;;5085340;28;20097;-71
2021/12/04 14:45:27;;;;;;;47.00;26.20;;;6.20;99.90;;;;;;5086187;28;20298;-72
2021/12/04 14:48:07;;;;;;;46.23;25.33;;;6.30;99.90;;;;;;5084804;28;20064;-72
2021/12/04 14:50:36;;;;;;;39.23;23.43;;;6.30;99.90;;;;;;5084603;28;20411;-70
2021/12/04 14:53:04;;;;;;;48.43;26.37;;;6.30;99.90;;;;;;5084639;28;20105;-72
2021/12/04 14:55:33;;;;;;;43.97;25.47;;;6.30;99.90;;;;;;5085266;28;20594;-72
2021/12/04 14:57:59;;;;;;;48.53;27.30;;;6.40;99.90;;;;;;5083707;28;20059;-74
2021/12/04 15:00:29;;;;;;;49.37;26.57;;;6.40;99.90;;;;;;5084285;28;20044;-73
2021/12/04 15:03:07;;;;;;;43.40;26.17;;;6.40;99.90;;;;;;5085546;28;20048;-76
2021/12/04 15:05:37;;;;;;;52.13;27.33;;;6.40;99.90;;;;;;5083459;28;20044;-73
2021/12/04 15:08:16;;;;;;;43.87;25.33;;;6.40;99.90;;;;;;5085851;28;20093;-74
2021/12/04 15:10:47;;;;;;;41.87;25.03;;;6.40;99.90;;;;;;5083562;28;20585;-75
2021/12/04 15:13:22;;;;;;;47.23;26.60;;;6.50;99.90;;;;;;5084673;28;20048;-76
2021/12/04 15:15:50;;;;;;;45.83;26.50;;;6.50;99.90;;;;;;5084737;28;20528;-78
2021/12/04 15:18:20;;;;;;;48.70;28.10;;;6.50;99.90;;;;;;5083290;28;20104;-78
2021/12/04 15:21:01;;;;;;;46.97;27.33;;;6.50;99.90;;;;;;5085453;28;20381;-76
2021/12/04 15:23:30;;;;;;;50.60;27.95;;;6.50;99.90;;;;;;5083251;28;20125;-77
2021/12/04 15:26:00;;;;;;;45.77;26.37;;;6.50;99.90;;;;;;5083054;28;20056;-74
2021/12/04 15:28:28;;;;;;;49.90;29.80;;;6.50;99.90;;;;;;5076394;28;20488;-75
2021/12/04 15:30:57;;;;;;;49.00;29.83;;;6.50;99.90;;;;;;5069947;28;20131;-75
2021/12/04 15:33:30;;;;;;;49.03;26.17;;;6.50;99.90;;;;;;5069306;28;20127;-75
2021/12/04 15:35:58;;;;;;;51.13;29.13;;;6.60;99.90;;;;;;5069969;28;20476;-75
2021/12/04 15:38:44;;;;;;;47.10;26.83;;;6.60;99.90;;;;;;5069639;28;20051;-76
2021/12/04 15:46:39;;;;;;;54.67;33.53;;;6.60;99.90;;;;;;5068812;28;20044;-74
2021/12/04 15:54:33;;;;;;;61.73;31.80;;;6.60;99.90;;;;;;5068168;28;20056;-72
2021/12/04 15:56:59;;;;;;;38.85;24.17;;;6.60;99.90;;;;;;5067835;28;20131;-74
2021/12/04 15:59:27;;;;;;;47.07;25.13;;;6.60;99.90;;;;;;5068788;28;20136;-75
2021/12/04 16:01:55;;;;;;;44.13;24.93;;;6.60;99.90;;;;;;5068528;28;20531;-75
2021/12/04 16:04:30;;;;;;;50.23;29.03;;;6.60;99.90;;;;;;5068728;28;20076;-74
2021/12/04 16:06:58;;;;;;;36.37;24.30;;;6.60;99.90;;;;;;5068122;28;20163;-73
2021/12/04 16:09:36;;;;;;;41.83;25.50;;;6.70;99.90;;;;;;5068843;28;20047;-72
2021/12/04 16:12:13;;;;;;;41.87;24.73;;;6.70;99.90;;;;;;5068975;28;20464;-70
2021/12/04 16:14:44;;;;;;;39.00;24.90;;;6.70;99.90;;;;;;5068233;28;20057;-74
2021/12/04 16:17:12;;;;;;;41.00;24.60;;;6.70;99.90;;;;;;5070244;28;20175;-70
2021/12/04 16:19:39;;;;;;;34.23;20.80;;;6.70;99.90;;;;;;5068525;28;20148;-73
2021/12/04 16:22:09;;;;;;;35.93;22.53;;;6.70;99.90;;;;;;5068210;28;20052;-72
2021/12/04 16:24:38;;;;;;;38.40;23.23;;;6.70;99.90;;;;;;5068217;28;20070;-72
2021/12/04 16:27:25;;;;;;;40.43;21.50;;;6.70;99.90;;;;;;5068633;28;20044;-75
2021/12/04 16:29:59;;;;;;;35.50;24.17;;;6.70;99.90;;;;;;5067603;28;20040;-73
2021/12/04 16:35:11;;;;;;;37.00;21.80;;;6.60;99.90;;;;;;5067376;28;20060;-73
2021/12/04 16:37:47;;;;;;;41.40;24.87;;;6.60;99.90;;;;;;5067215;28;20489;-73
2021/12/04 16:40:19;;;;;;;56.73;31.60;;;6.60;99.90;;;;;;5066711;28;20063;-73
2021/12/04 16:42:45;;;;;;;48.83;30.77;;;6.60;99.90;;;;;;5066932;28;20072;-75
2021/12/04 16:45:13;;;;;;;57.50;33.87;;;6.60;99.90;;;;;;5067936;28;20040;-74
2021/12/04 16:47:45;;;;;;;48.77;30.03;;;6.60;99.90;;;;;;5068704;28;20139;-74
2021/12/04 16:50:17;;;;;;;52.08;31.27;;;6.60;99.90;;;;;;5066740;28;20511;-72
2021/12/04 16:56:01;;;;;;;47.53;30.03;;;6.60;99.90;;;;;;5067129;28;20084;-74
2021/12/04 16:58:28;;;;;;;53.97;35.20;;;6.60;99.90;;;;;;5066324;28;20041;-72
2021/12/04 17:00:54;;;;;;;44.90;31.27;;;6.60;99.90;;;;;;5066946;28;20052;-73
2021/12/04 17:03:21;;;;;;;56.33;32.30;;;6.60;99.90;;;;;;5066200;28;20048;-73
2021/12/04 17:05:47;;;;;;;50.63;30.47;;;6.50;99.90;;;;;;5066844;28;20047;-72
2021/12/04 17:08:13;;;;;;;54.17;33.97;;;6.50;99.90;;;;;;5068498;28;20074;-72
2021/12/04 17:10:39;;;;;;;48.50;30.83;;;6.40;99.90;;;;;;5066291;28;20040;-72
2021/12/04 17:13:06;;;;;;;51.67;31.87;;;6.40;99.90;;;;;;5067120;28;20479;-71
2021/12/04 17:15:34;;;;;;;47.20;28.43;;;6.30;99.90;;;;;;5067093;28;20076;-72
2021/12/04 17:18:02;;;;;;;62.43;40.70;;;6.30;99.90;;;;;;5065859;28;20132;-72
2021/12/04 17:20:33;;;;;;;56.57;35.43;;;6.30;99.90;;;;;;5066484;28;20044;-74
2021/12/04 17:22:58;;;;;;;43.50;28.97;;;6.30;99.90;;;;;;5065963;28;20165;-73
2021/12/04 17:25:24;;;;;;;39.43;26.60;;;6.30;99.90;;;;;;5065548;28;20123;-72
